AirNav   Air Wisconsin Up To $57,000 Bonus
 
 675 users online  

NK16 Hendricks Field Airport
Gouverneur, New York, USA

GOING TO GOUVERNEUR?


FAA INFORMATION EFFECTIVE 20 MAY 2021

Location

FAA Identifier: NK16
Lat/Long: 44-22-05.2210N 075-24-08.7700W
44-22.087017N 075-24.146167W
44.3681169,-75.4024361
(estimated)
Elevation: 480 ft. / 146.3 m (surveyed)
Variation: 14W (1985)
From city: 3 miles NE of GOUVERNEUR, NY
Time zone: UTC -4 (UTC -5 during Standard Time)
Zip code: 13642

Airport Operations

Airport use: Private use. Permission required prior to landing
Activation date: 08/1977
Control tower: no
ARTCC: BOSTON CENTER
FSS: BURLINGTON FLIGHT SERVICE STATION
Attendance: DAYLIGHT HOURS
Wind indicator: yes
Segmented circle: no

Airport Communications

UNICOM: 122.8
WX AWOS-3 at OGS (19 nm N): 118.525 (315-393-8982)

Nearby radio navigation aids

VOR radial/distance  VOR name  Freq  Var
ARTr061/37.9WATERTOWN VORTAC109.8012W

 
NDB name  Hdg/Dist  Freq  Var  ID
POTSDAM240/30.840014WPTD .--. - -..

Airport Services

Parking: tiedowns
Airframe service: NONE
Powerplant service: NONE
Bottled oxygen: NONE
Bulk oxygen: NONE

Runway Information

Runway 5/23

Dimensions: 2520 x 70 ft. / 768 x 21 m
RY 05/23 WIDTH VARIES 70-80 FT.
Surface: turf, in good condition
SOFT & WET DURG SPRING THAW MAR-MAY; FOR RY CONDS CALL 315-287-1160.
Runway edge markings: RY 05/23 NSTD MKGS; RY 05 EDGE MKD WITH WHITE TIRES, BEGINNING OF RY 05 MKD WITH ORANGE CONES. RY 23 RY EDGE MKD WITH WHITE TIRES.
RUNWAY 5  RUNWAY 23
Traffic pattern: leftleft
Markings: NSTDNSTD
Obstructions: 4 ft. fence, 85 ft. right of centerline
RY 05 +35 FT TREE 85 FT FM THLD 78 FT RIGHT.
23 ft. trees, 69 ft. left of centerline

Airport Ownership and Management from official FAA records

Ownership: Privately-owned
Owner: LEE'S MOBILE ELECTRIC SERVICE
PO BOX 86
GOUVERNEUR, NY 13642
Phone 315-287-1160
Manager: LELAND D. HENDRICK
PO BOX 86
GOUVERNEUR, NY 13642
Phone 315-287-1160

Airport Operational Statistics

Aircraft based on the field: 10
Single engine airplanes: 8
Ultralights: 2
    
Aircraft operations: avg 26/week *
67% local general aviation
33% transient general aviation
* for 12-month period ending 22 August 2002

Additional Remarks

DEER ON & INVOF ARPT.
FENCE PARALLEL TO RY RIGHT SIDE.
PARALLEL TURF TY LCTD NORTHWEST SIDE RY WITH DRAINAGE DITCHES BOTH SIDES.
RY 23 TWO TWRS LCTD LEFT DOWNWIND LEG.
FOR CD CTC BOSTON ARTCC AT 603-879-6859.

Instrument Procedures

There are no published instrument procedures at NK16.

Some nearby airports with instrument procedures:

KOGS - Ogdensburg International Airport (19 nm N)
KGTB - Wheeler-Sack Army Airfield (23 nm SW)
KPTD - Potsdam Municipal Airport/Damon Field (27 nm NE)
KART - Watertown International Airport (35 nm SW)
KMSS - Massena International Airport-Richards Field (42 nm NE)
 
Loc | Ops | Rwys | IFR | FBO | Links
Com | Nav | Svcs | Stats | Notes
Area around NK16 (Hendricks Field Airport)
 
Road maps at: MapQuest Bing Google
 
Aerial photo
WARNING: Photo may not be current or correct
Aerial photo of NK16 (Hendricks Field Airport)
Photo by Graeme J. W. Smith
Taken late March 2013
looking southwest.

Do you have a better or more recent aerial photo of Hendricks Field Airport that you would like to share? If so, please send us your photo.

 
Sectional chart

 
Airport distance calculator
Flying to Hendricks Field Airport? Find the distance to fly.

From to NK16

Sunrise and sunset
Times for 14-Jun-2021
 Local
(UTC-4)
 Zulu
(UTC)
Morning civil twilight04:4108:41
Sunrise05:1809:18
Sunset20:4600:46
Evening civil twilight21:2301:23

Current date and time
Zulu (UTC)  14-Jun-2021 04:17:58
Local (UTC-4)  14-Jun-2021 00:17:58
 
METAR
KOGS 
18nm N 
140335Z AUTO VRB05KT 10SM VCTS SCT048 OVC100 19/16 A2972 RMK AO2 LTG DSNT ALQDS
CWGH 
19nm W 
140300Z AUTO 09001KT 19/15 RMK AO1 SLP074 T01850151 58003
KGTB 
24nm SW 
140356Z AUTO 13008KT 4SM HZ BKN065 OVC100 22/14 A2973 RMK AO2 LTG DSNT NE-E AND SW AND NW SLP063 T02190143
KPTD 
27nm NE 
140335Z AUTO 21008KT 10SM FEW034 BKN080 OVC120 20/14 A2976 RMK AO2
KART 
36nm SW 
140351Z AUTO 00000KT 10SM -TSRA OVC070 19/16 A2973 RMK AO2 LTG DSNT ALQDS RAB41 TSB50 SLP062 P0000 T01890156
TAF
KGTB 
24nm SW 
140100Z 1401/1507 VRB06KT 9999 BKN060 OVC090 QNH2975INS BECMG 1401/1402 VRB06KT 8000 -SHRA FEW025 BKN040 OVC055 QNH2975INS TEMPO 1404/1408 22010G15KT 6000 -TSRA BKN040CB BECMG 1409/1410 VRB06KT 9999 NSW OVC040 QNH2973INS BECMG 1413/1414 22010G15KT 9999 BKN025 QNH2974INS BECMG 1417/1418 25010G15KT 9000 -SHRA BKN025 QNH2972INS TEMPO 1418/1421 24010G20KT 6000 -TSRA BKN035CB BECMG 1421/1422 25008KT 9999 NSW BKN030 QNH2973INS BECMG 1505/1507 23005KT 8000 BR BKN015 QNH2975INS TX23/1418Z TN14/1409Z
NOTAMs
Click for the latest NOTAMs
NOTAMs are issued by the DoD/FAA and will open in a separate window not controlled by AirNav.

 

 
 

Would you like to see your business listed on this page?

 If your business provides an interesting product or service to pilots, flight crews, aircraft, or users of the Hendricks Field Airport, you should consider listing it here.  To start the listing process, click on the button below
 
Add a business
 

Other Pages about Hendricks Field Airport

Update a link
 
Copyright © AirNav, LLC. All rights reserved. Privacy Policy  Contact